Time;durP1;ratioP1;P1;durP2;ratioP2;P2;SDS_P1;SDS_P2;PMS_P1;PMS_P2;Temp;Humidity;BMP_temperature;BMP_pressure;BME280_temperature;BME280_humidity;BME280_pressure;Samples;Min_cycle;Max_cycle;Signal;HPM_P1;HPM_P2
2021/12/20 00:02:06;;;;;;;7.47;2.75;;;;;;;;;;5046448;28;24956;-58
2021/12/20 00:04:31;;;;;;;4.07;2.00;;;;;;;;;;5043196;28;24470;-58
2021/12/20 00:06:56;;;;;;;5.53;2.30;;;;;;;;;;5057036;28;24564;-57
2021/12/20 00:09:21;;;;;;;6.68;2.50;;;;;;;;;;5064310;28;24446;-57
2021/12/20 00:11:47;;;;;;;4.78;2.30;;;;;;;;;;5052780;28;24975;-57
2021/12/20 00:14:12;;;;;;;3.60;2.10;;;;;;;;;;5050712;28;24465;-57
2021/12/20 00:16:37;;;;;;;2.42;1.80;;;;;;;;;;5050676;28;24411;-57
2021/12/20 00:19:02;;;;;;;6.17;2.17;;;;;;;;;;5051816;28;24819;-57
2021/12/20 00:21:28;;;;;;;3.17;1.80;;;;;;;;;;5059124;28;24423;-58
2021/12/20 00:23:53;;;;;;;4.30;2.10;;;;;;;;;;5046198;28;24972;-57
2021/12/20 00:26:18;;;;;;;6.10;2.20;;;;;;;;;;5047690;28;24861;-57
2021/12/20 00:28:43;;;;;;;4.07;2.00;;;;;;;;;;5062456;28;24392;-57
2021/12/20 00:31:08;;;;;;;5.00;2.20;;;;;;;;;;5064448;28;24431;-57
2021/12/20 00:33:34;;;;;;;4.20;2.10;;;;;;;;;;5061339;28;24811;-58
2021/12/20 00:36:02;;;;;;;3.83;2.10;;;;;;;;;;5043972;28;24550;-58
2021/12/20 00:41:11;;;;;;;5.57;2.20;;;;;;;;;;5051169;28;24431;-57
2021/12/20 00:43:36;;;;;;;5.30;2.30;;;;;;;;;;5050325;28;24969;-58
2021/12/20 00:46:02;;;;;;;6.63;2.40;;;;;;;;;;5044111;28;24459;-58
2021/12/20 00:48:27;;;;;;;4.40;2.40;;;;;;;;;;5050089;28;24423;-58
2021/12/20 00:50:52;;;;;;;4.80;2.08;;;;;;;;;;5053920;28;24434;-58
2021/12/20 00:53:17;;;;;;;4.03;2.00;;;;;;;;;;5044462;28;24533;-57
2021/12/20 00:55:43;;;;;;;3.23;1.80;;;;;;;;;;5052909;28;25148;-58
2021/12/20 00:58:08;;;;;;;4.57;2.30;;;;;;;;;;5053793;28;24854;-59
2021/12/20 01:00:38;;;;;;;4.10;2.20;;;;;;;;;;5056236;28;24415;-57
2021/12/20 01:03:04;;;;;;;4.30;2.30;;;;;;;;;;5050091;28;25023;-59
2021/12/20 01:05:29;;;;;;;4.03;2.22;;;;;;;;;;5044294;28;24522;-58
2021/12/20 01:07:58;;;;;;;4.53;2.20;;;;;;;;;;5061611;28;24516;-58
2021/12/20 01:10:24;;;;;;;3.47;2.40;;;;;;;;;;5056708;28;24403;-58
2021/12/20 01:12:50;;;;;;;4.80;2.33;;;;;;;;;;5046577;28;24495;-58
2021/12/20 01:15:21;;;;;;;4.20;2.30;;;;;;;;;;5050727;28;24461;-58
2021/12/20 01:17:46;;;;;;;6.85;2.35;;;;;;;;;;5053441;28;24765;-58
2021/12/20 01:20:12;;;;;;;6.07;2.60;;;;;;;;;;5058236;28;25026;-58
2021/12/20 01:22:37;;;;;;;4.27;2.20;;;;;;;;;;5059452;28;24485;-58
2021/12/20 01:25:03;;;;;;;5.60;2.20;;;;;;;;;;5055094;28;24419;-58
2021/12/20 01:27:28;;;;;;;3.50;2.20;;;;;;;;;;5064997;28;24505;-58
2021/12/20 01:29:53;;;;;;;5.53;2.30;;;;;;;;;;5055397;28;24403;-58
2021/12/20 01:32:18;;;;;;;3.60;2.27;;;;;;;;;;5053073;28;25807;-59
2021/12/20 01:34:43;;;;;;;5.20;2.40;;;;;;;;;;5046261;28;24423;-58
2021/12/20 01:37:08;;;;;;;4.40;2.50;;;;;;;;;;5062869;28;24422;-58
2021/12/20 01:39:33;;;;;;;4.13;2.10;;;;;;;;;;5061246;28;24425;-58
2021/12/20 01:42:00;;;;;;;3.57;2.10;;;;;;;;;;5056760;28;24479;-58
2021/12/20 01:44:25;;;;;;;5.50;2.00;;;;;;;;;;5049037;28;24438;-58
2021/12/20 01:46:50;;;;;;;4.80;2.30;;;;;;;;;;5042586;28;25000;-58
2021/12/20 01:49:17;;;;;;;6.77;1.87;;;;;;;;;;5049911;28;24426;-58
2021/12/20 01:52:20;;;;;;;2.53;1.80;;;;;;;;;;5055083;28;25012;-58
2021/12/20 01:54:35;;;;;;;3.50;1.63;;;;;;;;;;5061239;28;24467;-58
2021/12/20 01:57:00;;;;;;;4.85;2.00;;;;;;;;;;5055187;28;24483;-59
2021/12/20 01:59:26;;;;;;;4.50;1.83;;;;;;;;;;5046115;28;24492;-59
2021/12/20 02:01:52;;;;;;;1.80;1.33;;;;;;;;;;5054782;28;24991;-59
2021/12/20 02:04:19;;;;;;;2.03;1.50;;;;;;;;;;5052552;28;24451;-59
2021/12/20 02:06:47;;;;;;;3.65;1.60;;;;;;;;;;5050549;28;24588;-59
2021/12/20 02:09:14;;;;;;;1.80;1.58;;;;;;;;;;5056730;28;24418;-59
2021/12/20 02:11:40;;;;;;;3.57;1.73;;;;;;;;;;5057490;28;24506;-59
2021/12/20 02:17:08;;;;;;;2.55;1.30;;;;;;;;;;5045676;28;24422;-57
2021/12/20 02:19:36;;;;;;;3.30;1.50;;;;;;;;;;5053403;28;24676;-57
2021/12/20 02:22:02;;;;;;;3.13;1.40;;;;;;;;;;5044280;28;25001;-57
2021/12/20 02:24:27;;;;;;;2.03;1.50;;;;;;;;;;5060172;28;24454;-58
2021/12/20 02:26:52;;;;;;;2.87;1.40;;;;;;;;;;5053755;28;24500;-58
2021/12/20 02:29:26;;;;;;;4.00;1.45;;;;;;;;;;5049445;28;24430;-58
2021/12/20 02:37:28;;;;;;;2.20;1.50;;;;;;;;;;5045816;28;24454;-58
2021/12/20 02:39:53;;;;;;;2.00;1.30;;;;;;;;;;5043489;28;25973;-57
2021/12/20 02:42:23;;;;;;;4.50;1.50;;;;;;;;;;5040133;28;24469;-57
2021/12/20 02:44:58;;;;;;;3.50;1.40;;;;;;;;;;5049506;28;24410;-57
2021/12/20 02:47:28;;;;;;;2.92;1.60;;;;;;;;;;5051244;28;24458;-58
2021/12/20 02:49:54;;;;;;;2.33;1.58;;;;;;;;;;5048414;28;24868;-58
2021/12/20 02:52:19;;;;;;;5.13;2.07;;;;;;;;;;5057476;28;24447;-57
2021/12/20 02:54:44;;;;;;;3.00;1.40;;;;;;;;;;5057056;28;24411;-58
2021/12/20 02:57:09;;;;;;;5.60;1.95;;;;;;;;;;5053879;28;24514;-58
2021/12/20 02:59:34;;;;;;;2.10;1.50;;;;;;;;;;5061954;28;25006;-57
2021/12/20 03:02:02;;;;;;;3.00;1.60;;;;;;;;;;5054785;28;24461;-58
2021/12/20 03:04:27;;;;;;;2.90;1.98;;;;;;;;;;5057140;28;24476;-58
2021/12/20 03:06:56;;;;;;;3.60;1.90;;;;;;;;;;5050203;28;24430;-58
2021/12/20 03:09:26;;;;;;;2.03;1.50;;;;;;;;;;5055739;28;24472;-58
2021/12/20 03:11:51;;;;;;;2.70;1.90;;;;;;;;;;5052438;28;24773;-58
2021/12/20 03:14:26;;;;;;;5.17;1.87;;;;;;;;;;5040770;28;24411;-57
2021/12/20 03:16:51;;;;;;;3.30;1.80;;;;;;;;;;5044430;28;24533;-58
2021/12/20 03:19:16;;;;;;;3.53;1.60;;;;;;;;;;5059392;28;24526;-58
2021/12/20 03:21:41;;;;;;;3.53;2.00;;;;;;;;;;5063192;28;24410;-58
2021/12/20 03:24:07;;;;;;;2.92;1.70;;;;;;;;;;5053094;28;24430;-58
2021/12/20 03:26:32;;;;;;;2.57;1.80;;;;;;;;;;5048631;28;24442;-58
2021/12/20 03:28:58;;;;;;;4.43;2.10;;;;;;;;;;5057008;28;26332;-58
2021/12/20 03:31:23;;;;;;;4.27;1.90;;;;;;;;;;5062769;28;25685;-60
2021/12/20 03:33:48;;;;;;;2.45;1.70;;;;;;;;;;5062055;28;24417;-57
2021/12/20 03:36:13;;;;;;;2.90;1.80;;;;;;;;;;5052755;28;24454;-57
2021/12/20 03:38:38;;;;;;;4.20;1.85;;;;;;;;;;5056274;28;24426;-60
2021/12/20 03:41:04;;;;;;;3.93;1.87;;;;;;;;;;5055818;28;24477;-58
2021/12/20 03:43:31;;;;;;;4.70;2.10;;;;;;;;;;5060260;28;24849;-58
2021/12/20 03:45:59;;;;;;;4.80;2.08;;;;;;;;;;5058647;28;24422;-58
2021/12/20 03:48:26;;;;;;;2.13;1.90;;;;;;;;;;5052028;28;24510;-58
2021/12/20 03:50:51;;;;;;;2.78;1.70;;;;;;;;;;5056903;28;24412;-58
2021/12/20 03:53:16;;;;;;;4.60;1.90;;;;;;;;;;5056486;28;24762;-58
2021/12/20 03:55:42;;;;;;;1.77;1.60;;;;;;;;;;5050880;28;24538;-58
2021/12/20 03:58:07;;;;;;;2.80;1.70;;;;;;;;;;5051898;28;24453;-58
2021/12/20 04:00:32;;;;;;;3.93;2.00;;;;;;;;;;5048853;28;24994;-57
2021/12/20 04:02:57;;;;;;;2.10;1.70;;;;;;;;;;5058024;28;24469;-57
2021/12/20 04:05:22;;;;;;;3.50;1.93;;;;;;;;;;5058121;28;24426;-57
2021/12/20 04:07:48;;;;;;;4.78;1.50;;;;;;;;;;5053811;28;24488;-58
2021/12/20 04:10:13;;;;;;;3.90;1.70;;;;;;;;;;5049997;28;24418;-58
2021/12/20 04:12:38;;;;;;;2.47;1.57;;;;;;;;;;5051497;28;24414;-58
2021/12/20 04:15:05;;;;;;;4.15;2.10;;;;;;;;;;5053694;28;24502;-59
2021/12/20 04:17:30;;;;;;;3.00;1.80;;;;;;;;;;5054877;28;24994;-58
2021/12/20 04:19:56;;;;;;;2.70;1.90;;;;;;;;;;5058883;28;24453;-58
2021/12/20 04:22:21;;;;;;;2.80;1.90;;;;;;;;;;5051928;28;24411;-59
2021/12/20 04:24:46;;;;;;;5.68;2.10;;;;;;;;;;5051299;28;24417;-59
2021/12/20 04:27:11;;;;;;;3.17;1.80;;;;;;;;;;5060810;28;24427;-59
2021/12/20 04:29:37;;;;;;;6.53;1.77;;;;;;;;;;5061899;28;25002;-59
2021/12/20 04:32:02;;;;;;;5.70;2.00;;;;;;;;;;5044209;28;24419;-59
2021/12/20 04:34:28;;;;;;;4.60;1.90;;;;;;;;;;5052555;28;25047;-59
2021/12/20 04:36:53;;;;;;;2.67;1.70;;;;;;;;;;5050485;28;24422;-59
2021/12/20 04:39:25;;;;;;;2.60;1.60;;;;;;;;;;5045913;28;24838;-59
2021/12/20 04:41:50;;;;;;;3.07;1.57;;;;;;;;;;5047160;28;24948;-59
2021/12/20 04:44:15;;;;;;;3.88;2.10;;;;;;;;;;5057477;28;24433;-59
2021/12/20 04:46:40;;;;;;;4.37;1.90;;;;;;;;;;5049675;28;24781;-59
2021/12/20 04:49:05;;;;;;;4.53;1.83;;;;;;;;;;5060625;28;25003;-59
2021/12/20 04:51:30;;;;;;;3.57;1.60;;;;;;;;;;5045088;28;24983;-59
2021/12/20 04:53:56;;;;;;;2.07;1.53;;;;;;;;;;5055531;28;24411;-59
2021/12/20 04:56:21;;;;;;;3.27;1.77;;;;;;;;;;5060216;28;24469;-58
2021/12/20 04:58:46;;;;;;;2.47;1.77;;;;;;;;;;5057913;28;24421;-59
2021/12/20 05:01:11;;;;;;;3.13;1.70;;;;;;;;;;5058546;28;24451;-58
2021/12/20 05:03:36;;;;;;;2.30;1.70;;;;;;;;;;5050816;28;24461;-58
2021/12/20 05:06:01;;;;;;;3.03;1.40;;;;;;;;;;5055967;28;24541;-59
2021/12/20 05:08:33;;;;;;;2.90;1.40;;;;;;;;;;5051943;28;25012;-59
2021/12/20 05:10:59;;;;;;;3.33;1.70;;;;;;;;;;5054911;28;24415;-59
2021/12/20 05:13:24;;;;;;;2.53;1.52;;;;;;;;;;5043699;28;24801;-58
2021/12/20 05:15:49;;;;;;;4.20;2.00;;;;;;;;;;5043409;28;24812;-58
2021/12/20 05:18:14;;;;;;;2.33;1.40;;;;;;;;;;5045852;28;24558;-58
2021/12/20 05:20:39;;;;;;;4.17;1.63;;;;;;;;;;5054959;28;24412;-59
2021/12/20 05:23:05;;;;;;;3.43;1.47;;;;;;;;;;5046406;28;24881;-58
2021/12/20 05:25:30;;;;;;;5.97;1.67;;;;;;;;;;5050197;28;24948;-57
2021/12/20 05:27:55;;;;;;;6.10;1.80;;;;;;;;;;5050183;28;24485;-58
2021/12/20 05:30:21;;;;;;;3.60;1.43;;;;;;;;;;5044920;28;24430;-58
2021/12/20 05:32:47;;;;;;;4.40;1.70;;;;;;;;;;5051716;28;24426;-58
2021/12/20 05:35:14;;;;;;;3.92;1.60;;;;;;;;;;5052632;28;24442;-58
2021/12/20 05:37:40;;;;;;;2.05;1.60;;;;;;;;;;5044879;28;24544;-58
2021/12/20 05:40:07;;;;;;;2.78;2.00;;;;;;;;;;5048116;28;24909;-58
2021/12/20 05:42:33;;;;;;;2.85;1.73;;;;;;;;;;5041119;28;24465;-58
2021/12/20 05:44:58;;;;;;;6.07;1.90;;;;;;;;;;5038762;28;24494;-58
2021/12/20 05:47:23;;;;;;;3.80;1.80;;;;;;;;;;5045590;28;25066;-58
2021/12/20 05:49:49;;;;;;;3.53;2.00;;;;;;;;;;5041057;28;24415;-58
2021/12/20 05:52:14;;;;;;;4.23;2.10;;;;;;;;;;5040297;28;24457;-58
2021/12/20 05:54:39;;;;;;;2.27;1.70;;;;;;;;;;5046927;28;24465;-58
2021/12/20 05:57:05;;;;;;;4.63;1.98;;;;;;;;;;5041380;28;25047;-58
2021/12/20 05:59:30;;;;;;;3.77;1.60;;;;;;;;;;5055370;28;25013;-58
2021/12/20 06:01:55;;;;;;;3.42;1.92;;;;;;;;;;5053855;28;24453;-58
2021/12/20 06:04:20;;;;;;;2.33;1.60;;;;;;;;;;5054307;28;24421;-58
2021/12/20 06:06:45;;;;;;;3.22;1.90;;;;;;;;;;5052557;28;24436;-58
2021/12/20 06:09:11;;;;;;;3.97;1.80;;;;;;;;;;5051738;28;25086;-59
2021/12/20 06:11:36;;;;;;;4.00;1.90;;;;;;;;;;5055863;28;24415;-58
2021/12/20 06:14:01;;;;;;;4.93;2.00;;;;;;;;;;5056447;28;24417;-59
2021/12/20 06:16:26;;;;;;;4.90;2.30;;;;;;;;;;5053153;28;24446;-59
2021/12/20 06:18:51;;;;;;;6.13;1.90;;;;;;;;;;5059970;28;24427;-58
2021/12/20 06:21:17;;;;;;;4.17;2.07;;;;;;;;;;5045045;28;24933;-58
2021/12/20 06:23:42;;;;;;;5.73;2.00;;;;;;;;;;5054423;28;24471;-58
2021/12/20 06:26:07;;;;;;;4.40;1.90;;;;;;;;;;5061258;28;24426;-58
2021/12/20 06:28:32;;;;;;;4.00;2.10;;;;;;;;;;5062095;28;24402;-59
2021/12/20 06:30:58;;;;;;;2.60;2.07;;;;;;;;;;5058016;28;24406;-58
2021/12/20 06:33:23;;;;;;;4.47;1.90;;;;;;;;;;5048938;28;24411;-59
2021/12/20 06:35:48;;;;;;;3.97;2.20;;;;;;;;;;5052187;28;24442;-58
2021/12/20 06:38:19;;;;;;;4.13;1.90;;;;;;;;;;5061938;28;24387;-59
2021/12/20 06:40:45;;;;;;;3.08;2.00;;;;;;;;;;5056457;28;24399;-58
2021/12/20 06:43:10;;;;;;;4.30;1.95;;;;;;;;;;5052279;28;25049;-58
2021/12/20 06:45:35;;;;;;;5.93;2.50;;;;;;;;;;5053574;28;24419;-59
2021/12/20 06:48:00;;;;;;;5.10;2.33;;;;;;;;;;5039361;28;24419;-58
2021/12/20 06:50:26;;;;;;;3.77;2.30;;;;;;;;;;5042969;28;24415;-59
2021/12/20 06:52:51;;;;;;;3.70;2.17;;;;;;;;;;5041311;28;24435;-58
2021/12/20 06:55:16;;;;;;;3.97;2.13;;;;;;;;;;5039744;28;24468;-59
2021/12/20 06:57:41;;;;;;;4.97;1.90;;;;;;;;;;5041263;28;25020;-58
2021/12/20 07:00:07;;;;;;;4.40;2.20;;;;;;;;;;5041267;28;24444;-59
2021/12/20 07:02:32;;;;;;;6.13;2.20;;;;;;;;;;5044169;28;24518;-58
2021/12/20 07:04:57;;;;;;;4.47;2.20;;;;;;;;;;5044511;28;24438;-59
2021/12/20 07:07:22;;;;;;;3.73;1.97;;;;;;;;;;5047575;28;24435;-59
2021/12/20 07:09:47;;;;;;;4.45;2.20;;;;;;;;;;5042962;28;24415;-59
2021/12/20 07:12:13;;;;;;;3.60;2.20;;;;;;;;;;5050223;28;25209;-59
2021/12/20 07:14:39;;;;;;;5.20;2.10;;;;;;;;;;5043091;28;24411;-59
2021/12/20 07:17:04;;;;;;;6.03;2.20;;;;;;;;;;5042087;28;24765;-59
2021/12/20 07:19:29;;;;;;;6.90;2.53;;;;;;;;;;5056977;28;24516;-58
2021/12/20 07:21:54;;;;;;;5.90;2.53;;;;;;;;;;5054159;28;25031;-58
2021/12/20 07:24:19;;;;;;;5.53;2.60;;;;;;;;;;5042962;28;24418;-58
2021/12/20 07:26:45;;;;;;;7.00;2.80;;;;;;;;;;5054727;28;24461;-58
2021/12/20 07:29:10;;;;;;;6.17;2.50;;;;;;;;;;5056662;28;24942;-58
2021/12/20 07:31:35;;;;;;;4.30;2.70;;;;;;;;;;5053050;28;24829;-58
2021/12/20 07:34:00;;;;;;;5.10;2.60;;;;;;;;;;5045070;28;24955;-58
2021/12/20 07:36:25;;;;;;;4.30;2.03;;;;;;;;;;5048310;28;24979;-59
2021/12/20 07:38:51;;;;;;;3.37;2.10;;;;;;;;;;5049768;28;24427;-59
2021/12/20 07:41:18;;;;;;;4.90;2.40;;;;;;;;;;5051575;28;24506;-59
2021/12/20 07:43:43;;;;;;;2.78;2.20;;;;;;;;;;5051806;28;24435;-58
2021/12/20 07:46:08;;;;;;;4.93;2.40;;;;;;;;;;5054562;28;24445;-58
2021/12/20 07:48:33;;;;;;;6.15;2.78;;;;;;;;;;5050700;28;24449;-59
2021/12/20 07:50:59;;;;;;;6.00;2.50;;;;;;;;;;5048039;28;24446;-58
2021/12/20 07:53:24;;;;;;;4.00;1.93;;;;;;;;;;5048686;28;24533;-58
2021/12/20 07:55:50;;;;;;;2.40;1.80;;;;;;;;;;5045538;28;24557;-58
2021/12/20 07:58:15;;;;;;;6.68;2.47;;;;;;;;;;5040276;28;24411;-58
2021/12/20 08:00:40;;;;;;;6.40;2.70;;;;;;;;;;5052883;28;25064;-58
2021/12/20 08:03:05;;;;;;;4.95;2.40;;;;;;;;;;5057413;28;25185;-59
2021/12/20 08:05:32;;;;;;;6.30;2.43;;;;;;;;;;5059285;28;24928;-58
2021/12/20 08:07:57;;;;;;;3.42;2.30;;;;;;;;;;5055249;28;24500;-58
2021/12/20 08:10:24;;;;;;;5.53;2.50;;;;;;;;;;5062347;28;25310;-58
2021/12/20 08:12:50;;;;;;;2.90;2.10;;;;;;;;;;5058963;28;24987;-58
2021/12/20 08:15:15;;;;;;;4.80;2.50;;;;;;;;;;5059842;28;24398;-59
2021/12/20 08:17:40;;;;;;;4.47;2.70;;;;;;;;;;5063548;28;24765;-58
2021/12/20 08:20:06;;;;;;;5.50;2.70;;;;;;;;;;5050790;28;24419;-58
2021/12/20 08:22:31;;;;;;;5.53;2.70;;;;;;;;;;5053698;28;24972;-58
2021/12/20 08:24:57;;;;;;;4.20;2.60;;;;;;;;;;5062566;28;24391;-59
2021/12/20 08:27:22;;;;;;;3.72;2.80;;;;;;;;;;5060404;28;24425;-58
2021/12/20 08:29:48;;;;;;;5.10;2.70;;;;;;;;;;5058046;28;24972;-60
2021/12/20 08:32:13;;;;;;;5.40;2.60;;;;;;;;;;5066106;28;24398;-59
2021/12/20 08:34:38;;;;;;;4.97;2.80;;;;;;;;;;5063771;28;24473;-60
2021/12/20 08:37:03;;;;;;;7.03;2.90;;;;;;;;;;5040530;28;24400;-60
2021/12/20 08:39:29;;;;;;;5.17;3.23;;;;;;;;;;5041773;28;24484;-58
2021/12/20 08:41:54;;;;;;;7.63;3.20;;;;;;;;;;5062371;28;24468;-57
2021/12/20 08:44:20;;;;;;;5.60;2.90;;;;;;;;;;5062632;28;24415;-60
2021/12/20 08:46:45;;;;;;;4.88;3.28;;;;;;;;;;5060471;28;24557;-60
2021/12/20 08:49:10;;;;;;;3.90;2.90;;;;;;;;;;5059954;28;24942;-60
2021/12/20 08:51:36;;;;;;;4.37;3.13;;;;;;;;;;5059824;28;24395;-58
2021/12/20 08:54:01;;;;;;;4.57;3.50;;;;;;;;;;5050230;28;24494;-57
2021/12/20 08:56:26;;;;;;;5.43;3.10;;;;;;;;;;5045439;28;24687;-58
2021/12/20 08:58:51;;;;;;;5.53;2.93;;;;;;;;;;5043394;28;24785;-58
2021/12/20 09:01:17;;;;;;;7.50;3.05;;;;;;;;;;5059445;28;24401;-59
2021/12/20 09:03:44;;;;;;;5.30;3.45;;;;;;;;;;5061998;28;24952;-58
2021/12/20 09:06:10;;;;;;;4.60;3.10;;;;;;;;;;5050904;28;24411;-58
2021/12/20 09:08:35;;;;;;;5.73;3.10;;;;;;;;;;5045403;28;24415;-59
2021/12/20 09:11:00;;;;;;;7.60;3.53;;;;;;;;;;5041442;28;24407;-58
2021/12/20 09:13:25;;;;;;;3.60;3.20;;;;;;;;;;5041164;28;24510;-58
2021/12/20 09:15:51;;;;;;;6.77;3.27;;;;;;;;;;5040154;28;24411;-58
2021/12/20 09:18:16;;;;;;;7.63;3.58;;;;;;;;;;5044925;28;24698;-58
2021/12/20 09:20:42;;;;;;;5.30;3.60;;;;;;;;;;5045290;28;24400;-59
2021/12/20 09:23:10;;;;;;;7.20;3.20;;;;;;;;;;5039234;28;24465;-58
2021/12/20 09:25:36;;;;;;;6.65;3.33;;;;;;;;;;5038958;28;24845;-59
2021/12/20 09:28:03;;;;;;;4.70;3.40;;;;;;;;;;5046796;28;24492;-58
2021/12/20 09:30:29;;;;;;;5.53;3.30;;;;;;;;;;5065281;28;24442;-58
2021/12/20 09:32:54;;;;;;;7.47;3.60;;;;;;;;;;5056645;28;25026;-58
2021/12/20 09:35:19;;;;;;;4.77;3.30;;;;;;;;;;5039250;28;25005;-58
2021/12/20 09:37:49;;;;;;;5.43;3.20;;;;;;;;;;5042774;28;24391;-58
2021/12/20 09:40:15;;;;;;;5.33;2.90;;;;;;;;;;5042879;28;24908;-58
2021/12/20 09:42:54;;;;;;;5.67;3.10;;;;;;;;;;5060878;28;24418;-58
2021/12/20 09:45:19;;;;;;;4.83;3.30;;;;;;;;;;5058199;28;24450;-58
2021/12/20 09:47:45;;;;;;;6.00;3.80;;;;;;;;;;5059207;28;24841;-58
2021/12/20 09:50:11;;;;;;;6.93;3.50;;;;;;;;;;5060757;28;24456;-59
2021/12/20 09:52:37;;;;;;;4.95;3.30;;;;;;;;;;5062192;28;24437;-58
2021/12/20 09:55:02;;;;;;;5.40;3.70;;;;;;;;;;5060731;28;24465;-58
2021/12/20 09:57:28;;;;;;;5.07;3.70;;;;;;;;;;5045171;28;24424;-58
2021/12/20 09:59:53;;;;;;;7.63;3.80;;;;;;;;;;5058884;28;24833;-59
2021/12/20 10:02:19;;;;;;;4.70;3.40;;;;;;;;;;5062631;28;25256;-58
2021/12/20 10:04:45;;;;;;;6.30;3.63;;;;;;;;;;5062728;28;24492;-59
2021/12/20 10:07:10;;;;;;;6.60;3.70;;;;;;;;;;5058546;28;24435;-59
2021/12/20 10:09:37;;;;;;;5.93;3.60;;;;;;;;;;5057631;28;24427;-59
2021/12/20 10:12:11;;;;;;;5.53;3.42;;;;;;;;;;5060281;28;24394;-59
2021/12/20 10:14:55;;;;;;;9.07;3.60;;;;;;;;;;5064300;28;24415;-59
2021/12/20 10:17:22;;;;;;;6.50;4.00;;;;;;;;;;5060551;28;24780;-58
2021/12/20 10:19:48;;;;;;;8.68;4.95;;;;;;;;;;5060209;28;24482;-59
2021/12/20 10:22:29;;;;;;;4.65;3.95;;;;;;;;;;5040438;28;24964;-59
2021/12/20 10:24:56;;;;;;;7.03;3.70;;;;;;;;;;5044034;28;24521;-59
2021/12/20 10:27:28;;;;;;;7.10;3.83;;;;;;;;;;5042022;28;24465;-59
2021/12/20 10:29:53;;;;;;;5.07;3.40;;;;;;;;;;5054554;28;24498;-59
2021/12/20 10:32:36;;;;;;;5.60;3.30;;;;;;;;;;5045807;28;24511;-59
2021/12/20 10:35:01;;;;;;;6.60;3.60;;;;;;;;;;5041736;28;24427;-59
2021/12/20 10:37:38;;;;;;;6.43;3.17;;;;;;;;;;5043082;28;24406;-59
2021/12/20 10:40:03;;;;;;;8.98;3.40;;;;;;;;;;5049443;28;24450;-59
2021/12/20 10:42:30;;;;;;;8.52;3.33;;;;;;;;;;5059766;28;24443;-59
2021/12/20 10:45:09;;;;;;;5.80;3.40;;;;;;;;;;5045739;28;24406;-59
2021/12/20 10:47:35;;;;;;;7.77;3.50;;;;;;;;;;5058270;28;24828;-58
2021/12/20 10:50:18;;;;;;;5.70;3.57;;;;;;;;;;5060332;28;24468;-59
2021/12/20 10:52:43;;;;;;;6.28;3.70;;;;;;;;;;5056305;28;24664;-58
2021/12/20 10:55:11;;;;;;;5.97;3.53;;;;;;;;;;5059952;28;25046;-59
2021/12/20 10:57:36;;;;;;;6.70;3.90;;;;;;;;;;5047449;28;24499;-59
2021/12/20 11:00:21;;;;;;;7.60;3.80;;;;;;;;;;5045749;28;24514;-58
2021/12/20 11:03:24;;;;;;;6.28;3.67;;;;;;;;;;5058142;28;24851;-59
2021/12/20 11:11:18;;;;;;;7.13;3.47;;;;;;;;;;5060220;28;24444;-58
2021/12/20 11:13:43;;;;;;;4.50;3.67;;;;;;;;;;5056200;28;24948;-59
2021/12/20 11:16:22;;;;;;;6.70;3.40;;;;;;;;;;5059340;28;24398;-59
2021/12/20 11:18:47;;;;;;;6.20;3.40;;;;;;;;;;5063254;28;25021;-58
2021/12/20 11:21:14;;;;;;;6.00;4.00;;;;;;;;;;5054914;28;24415;-59
2021/12/20 11:23:39;;;;;;;6.85;3.60;;;;;;;;;;5038135;28;24387;-59
2021/12/20 11:26:04;;;;;;;5.50;3.50;;;;;;;;;;5040049;28;24454;-59
2021/12/20 11:28:29;;;;;;;6.00;3.40;;;;;;;;;;5062939;28;24434;-58
2021/12/20 11:30:54;;;;;;;4.53;3.60;;;;;;;;;;5061212;28;24456;-59
2021/12/20 11:33:19;;;;;;;6.73;3.27;;;;;;;;;;5055740;28;24416;-58
2021/12/20 11:35:45;;;;;;;5.65;3.60;;;;;;;;;;5043081;28;24427;-58
2021/12/20 11:38:10;;;;;;;5.40;3.40;;;;;;;;;;5040867;28;24812;-58
2021/12/20 11:40:35;;;;;;;7.57;3.80;;;;;;;;;;5055339;28;24458;-58
2021/12/20 11:43:00;;;;;;;5.93;3.70;;;;;;;;;;5057696;28;24407;-59
2021/12/20 11:45:27;;;;;;;6.80;3.57;;;;;;;;;;5062958;28;24989;-58
2021/12/20 11:48:04;;;;;;;8.80;4.50;;;;;;;;;;5049678;28;24812;-58
2021/12/20 11:50:35;;;;;;;5.30;3.45;;;;;;;;;;5044686;28;24387;-59
2021/12/20 11:53:04;;;;;;;9.10;3.83;;;;;;;;;;5058693;28;24431;-58
2021/12/20 11:55:30;;;;;;;5.15;3.33;;;;;;;;;;5063243;28;24456;-58
2021/12/20 11:57:56;;;;;;;6.50;3.80;;;;;;;;;;5047002;28;24415;-59
2021/12/20 12:00:23;;;;;;;9.30;4.05;;;;;;;;;;5062786;28;24427;-59
2021/12/20 12:02:50;;;;;;;4.35;3.22;;;;;;;;;;5062779;28;25059;-59
2021/12/20 12:05:35;;;;;;;4.87;3.60;;;;;;;;;;5063809;28;24434;-59
2021/12/20 12:08:19;;;;;;;4.75;3.42;;;;;;;;;;5052006;28;24458;-59
2021/12/20 12:10:44;;;;;;;5.20;3.50;;;;;;;;;;5060986;28;24504;-59
2021/12/20 12:13:15;;;;;;;7.70;3.50;;;;;;;;;;5064649;28;24857;-59
2021/12/20 12:15:59;;;;;;;5.93;3.50;;;;;;;;;;5063874;28;25007;-59
2021/12/20 12:18:41;;;;;;;6.80;3.90;;;;;;;;;;5049949;28;24511;-59
2021/12/20 12:21:07;;;;;;;6.60;3.30;;;;;;;;;;5059062;28;24418;-58
2021/12/20 12:23:42;;;;;;;5.53;3.40;;;;;;;;;;5062805;28;24401;-59
2021/12/20 12:26:09;;;;;;;9.18;4.80;;;;;;;;;;5066293;28;24967;-59
2021/12/20 12:28:55;;;;;;;6.82;4.35;;;;;;;;;;5059383;28;24533;-59
2021/12/20 12:31:20;;;;;;;6.22;3.88;;;;;;;;;;5058958;28;25448;-59
2021/12/20 12:33:46;;;;;;;7.77;4.17;;;;;;;;;;5060627;28;24487;-59
2021/12/20 12:36:25;;;;;;;5.55;3.20;;;;;;;;;;5064089;28;24453;-59
2021/12/20 12:38:52;;;;;;;6.63;3.40;;;;;;;;;;5064876;28;24986;-59
2021/12/20 12:41:24;;;;;;;5.43;3.17;;;;;;;;;;5042214;28;24458;-59
2021/12/20 12:44:22;;;;;;;5.30;3.37;;;;;;;;;;5057996;28;24803;-59
2021/12/20 12:46:53;;;;;;;11.23;3.90;;;;;;;;;;5015684;28;24496;-59
2021/12/20 12:49:31;;;;;;;4.70;3.10;;;;;;;;;;5065431;28;24812;-58
2021/12/20 12:51:59;;;;;;;4.82;3.10;;;;;;;;;;5065562;28;24391;-59
2021/12/20 12:54:33;;;;;;;4.18;3.20;;;;;;;;;;5060286;28;25035;-59
2021/12/20 12:57:10;;;;;;;6.05;3.85;;;;;;;;;;5061776;28;25446;-58
2021/12/20 12:59:42;;;;;;;5.68;4.03;;;;;;;;;;5062707;28;24452;-59
2021/12/20 13:02:09;;;;;;;4.43;3.50;;;;;;;;;;5063188;28;24446;-58
2021/12/20 13:05:01;;;;;;;4.53;3.60;;;;;;;;;;5065226;28;24449;-59
2021/12/20 13:07:30;;;;;;;6.55;3.85;;;;;;;;;;5029768;28;24843;-58
2021/12/20 13:09:58;;;;;;;6.47;3.50;;;;;;;;;;5061276;28;24773;-58
2021/12/20 13:15:15;;;;;;;4.97;3.63;;;;;;;;;;5063564;28;24494;-58
2021/12/20 13:17:42;;;;;;;4.47;3.05;;;;;;;;;;5061798;28;24424;-58
2021/12/20 13:23:00;;;;;;;5.47;3.75;;;;;;;;;;5059301;28;24430;-58
2021/12/20 13:25:34;;;;;;;3.60;3.00;;;;;;;;;;5062858;28;24956;-58
2021/12/20 13:27:59;;;;;;;4.53;2.78;;;;;;;;;;5064545;28;24418;-58
2021/12/20 13:30:28;;;;;;;4.30;2.80;;;;;;;;;;5059500;28;24470;-58
2021/12/20 13:32:57;;;;;;;4.35;3.22;;;;;;;;;;5061111;28;24415;-59
2021/12/20 13:35:22;;;;;;;4.97;3.40;;;;;;;;;;5058976;28;24403;-58
2021/12/20 13:37:49;;;;;;;4.73;3.30;;;;;;;;;;5064952;28;24413;-60
2021/12/20 13:40:14;;;;;;;4.60;3.10;;;;;;;;;;5048092;28;24415;-58
2021/12/20 13:42:53;;;;;;;5.70;3.15;;;;;;;;;;5056787;28;24473;-58
2021/12/20 13:45:19;;;;;;;4.53;3.20;;;;;;;;;;5059208;28;24394;-58
2021/12/20 13:47:45;;;;;;;5.93;3.60;;;;;;;;;;5061064;28;24433;-58
2021/12/20 13:50:17;;;;;;;4.30;2.92;;;;;;;;;;5052736;28;24419;-58
2021/12/20 13:52:46;;;;;;;5.65;3.45;;;;;;;;;;5044355;28;24963;-58
2021/12/20 13:55:11;;;;;;;5.85;3.90;;;;;;;;;;5056320;28;24422;-58
2021/12/20 13:57:37;;;;;;;5.90;3.40;;;;;;;;;;5041689;28;24424;-58
2021/12/20 14:00:05;;;;;;;4.17;3.77;;;;;;;;;;5040721;28;24935;-58
2021/12/20 14:02:34;;;;;;;6.05;3.42;;;;;;;;;;5044384;28;24434;-58
2021/12/20 14:05:11;;;;;;;4.85;3.00;;;;;;;;;;5047815;28;24799;-59
2021/12/20 14:07:39;;;;;;;6.40;3.60;;;;;;;;;;5038086;28;24536;-59
2021/12/20 14:10:15;;;;;;;3.83;3.20;;;;;;;;;;5039736;28;24825;-59
2021/12/20 14:12:47;;;;;;;3.38;2.95;;;;;;;;;;5044325;28;24441;-59
2021/12/20 14:15:23;;;;;;;5.22;3.35;;;;;;;;;;5056585;28;24445;-59
2021/12/20 14:17:56;;;;;;;5.05;3.50;;;;;;;;;;5058273;28;24720;-59
2021/12/20 14:20:22;;;;;;;6.45;3.40;;;;;;;;;;5063327;28;24402;-59
2021/12/20 14:22:58;;;;;;;6.10;3.70;;;;;;;;;;5063928;28;24763;-59
2021/12/20 14:25:34;;;;;;;6.70;3.80;;;;;;;;;;5058359;28;24439;-59
2021/12/20 14:28:00;;;;;;;5.03;3.50;;;;;;;;;;5059468;28;24971;-59
2021/12/20 14:30:25;;;;;;;4.88;3.63;;;;;;;;;;5061647;28;24399;-56
2021/12/20 14:32:50;;;;;;;6.70;3.30;;;;;;;;;;5063607;28;24948;-58
2021/12/20 14:35:23;;;;;;;7.22;3.72;;;;;;;;;;5059823;28;25146;-58
2021/12/20 14:37:49;;;;;;;5.72;3.42;;;;;;;;;;5056481;28;24534;-58
2021/12/20 14:40:34;;;;;;;5.30;3.53;;;;;;;;;;5059732;28;24825;-58
2021/12/20 14:43:07;;;;;;;5.53;3.80;;;;;;;;;;5063089;28;24427;-59
2021/12/20 14:45:32;;;;;;;5.88;3.47;;;;;;;;;;5059800;28;24383;-58
2021/12/20 14:48:14;;;;;;;5.13;3.90;;;;;;;;;;5047336;28;24451;-60
2021/12/20 14:50:46;;;;;;;4.63;3.30;;;;;;;;;;5047540;28;24411;-59
2021/12/20 14:53:24;;;;;;;6.17;3.80;;;;;;;;;;5055519;28;25035;-59
2021/12/20 14:55:49;;;;;;;4.85;3.30;;;;;;;;;;5052668;28;24777;-59
2021/12/20 14:58:14;;;;;;;6.00;3.70;;;;;;;;;;5048996;28;24426;-59
2021/12/20 15:00:41;;;;;;;5.50;3.30;;;;;;;;;;5040959;28;25267;-59
2021/12/20 15:03:07;;;;;;;4.60;3.50;;;;;;;;;;5036909;28;24412;-58
2021/12/20 15:05:32;;;;;;;5.23;3.20;;;;;;;;;;5049434;28;25384;-59
2021/12/20 15:07:57;;;;;;;5.80;3.90;;;;;;;;;;5043595;28;24601;-58